Grafton, NE (68365)

4:12 PM CDT on May 28, 2015 (GMT -0500)
Geneva | | Change Station
CLOSE
Current Station
Personal Weather Station
Location: Geneva, NE
Elevation: 1640 ft
Nearby Weather Stations

Elev 1640 ft 40.53 °N, 97.61 °W | Updated 9 seconds ago

Partly Cloudy
Partly Cloudy
83.2 °F
Feels Like 84 °F
N
3.4
Wind Variable Wind from South
Gusts 8.5 mph

Today
High -- | Low -- °F
--% Chance of Precip.
Yesterday
High -- | Low -- °F
Precip. -- in
6:04 AM 8:52 PM
Waxing Gibbous, 78% visible
Pressure 29.94 in
Visibility 10.0 miles
Clouds Few 4500 ft
Scattered Clouds 6500 ft
Heat Index 84 °F
Dew Point 63 °F
Humidity 51%
Rainfall 0.00 in
Snow Depth Not available.
UV 7 out of 12
Pollen 7.30 out of 12
Air Quality Not available.
Flu Activity No Activity
METAR KJYR 282055Z AUTO 19011G15KT 10SM FEW045 SCT065 26/15 A2994 RMK AO2

More Conditions Fewer Conditions

Pressure 29.94 in
Visibility 10.0 miles
Clouds Few 4500 ft
Scattered Clouds 6500 ft
Heat Index 84 °F
Dew Point 63 °F
Humidity 51%
Rainfall 0.00 in
Snow Depth Not available.
UV 7 out of 12
Pollen 7.30 out of 12
Air Quality Not available.
Flu Activity No Activity
METAR KJYR 282055Z AUTO 19011G15KT 10SM FEW045 SCT065 26/15 A2994 RMK AO2

More Conditions Fewer Conditions

10-Day Weather Forecast

Almanac

Astronomy

May. 28, 2015 Rise Set
Actual Time
Civil Twilight
Nautical Twilight
Astronomical Twilight
Moon
Length of Visible Light
Length of Day
Tomorrow will be .
, % of the Moon is Illuminated

Today's Extremes

State Highs State Lows

Community

WunderPhotos

Upload Photos

1,825,072 photos uploaded!

WunderBlogs® & News

Nearby

Air Quality

  Air Quality AQ Index Pollutant
Not available.

Snow Depth

Station Depth Elevation

Earthquake Activity

City Distance Mag. Time & Date
Minimum magnitude displayed is 2.5.

Coastal Water Temperatures

Place Temperature

Stations

Nearby Weather Stations

Station Location Temp. Windchill Dew Point Humidity Wind Precip. Elev Updated Type